createdAt,value
2022-07-30T00:00:23.802Z,18.45
2022-07-30T00:01:17.718Z,18.41
2022-07-30T00:02:16.647Z,18.38
2022-07-30T00:03:16.654Z,18.36
2022-07-30T00:04:16.620Z,18.34
2022-07-30T00:05:16.577Z,18.34
2022-07-30T00:06:16.568Z,18.29
2022-07-30T00:07:16.565Z,18.31
2022-07-30T00:08:16.593Z,18.27
2022-07-30T00:09:16.529Z,18.24
2022-07-30T00:10:16.508Z,18.23
2022-07-30T00:11:16.512Z,18.20
2022-07-30T00:12:16.505Z,18.19
2022-07-30T00:13:16.464Z,18.16
2022-07-30T00:14:16.464Z,18.14
2022-07-30T00:15:16.455Z,18.13
2022-07-30T00:16:16.492Z,18.10
2022-07-30T00:17:16.414Z,18.08
2022-07-30T00:18:16.434Z,18.06
2022-07-30T00:19:16.413Z,18.03
2022-07-30T00:20:16.374Z,18.02
2022-07-30T00:21:34.587Z,18.01
2022-07-30T00:22:17.418Z,17.98
2022-07-30T00:23:16.364Z,17.96
2022-07-30T00:24:16.353Z,17.95
2022-07-30T00:25:16.342Z,17.94
2022-07-30T00:26:16.343Z,17.92
2022-07-30T00:27:16.292Z,17.90
2022-07-30T00:28:16.312Z,17.88
2022-07-30T00:29:16.291Z,17.86
2022-07-30T00:30:16.252Z,17.84
2022-07-30T00:31:16.355Z,17.83
2022-07-30T00:32:16.271Z,17.81
2022-07-30T00:33:16.232Z,17.80
2022-07-30T00:34:16.197Z,17.80
2022-07-30T00:35:16.199Z,17.77
2022-07-30T00:36:16.282Z,17.76
2022-07-30T00:37:16.192Z,17.76
2022-07-30T00:38:16.170Z,17.74
2022-07-30T00:39:16.172Z,17.73
2022-07-30T00:40:16.120Z,17.73
2022-07-30T00:41:16.161Z,17.73
2022-07-30T00:42:16.114Z,17.73
2022-07-30T00:43:16.093Z,17.71
2022-07-30T00:44:16.065Z,17.71
2022-07-30T00:45:16.094Z,17.69
2022-07-30T00:46:16.082Z,17.69
2022-07-30T00:47:16.029Z,17.68
2022-07-30T00:48:16.007Z,17.66
2022-07-30T00:49:16.069Z,17.65
2022-07-30T00:50:16.011Z,17.65
2022-07-30T00:51:16.035Z,17.63
2022-07-30T00:52:16.006Z,17.63
2022-07-30T00:53:15.976Z,17.63
2022-07-30T00:54:15.935Z,17.62
2022-07-30T00:55:15.924Z,17.58
2022-07-30T00:56:15.904Z,17.55
2022-07-30T00:57:15.934Z,17.55
2022-07-30T00:58:15.923Z,17.50
2022-07-30T00:59:15.883Z,17.50
2022-07-30T01:00:15.875Z,17.47
2022-07-30T01:01:15.914Z,17.46
2022-07-30T01:02:15.977Z,17.43
2022-07-30T01:03:15.815Z,17.42
2022-07-30T01:04:15.825Z,17.40
2022-07-30T01:05:15.825Z,17.38
2022-07-30T01:06:15.774Z,17.35
2022-07-30T01:07:15.773Z,17.35
2022-07-30T01:08:15.769Z,17.35
2022-07-30T01:09:15.752Z,17.30
2022-07-30T01:10:15.765Z,17.31
2022-07-30T01:11:15.742Z,17.28
2022-07-30T01:12:15.712Z,17.25
2022-07-30T01:13:15.713Z,17.24
2022-07-30T01:14:15.688Z,17.22
2022-07-30T01:15:15.675Z,17.21
2022-07-30T01:16:15.744Z,17.21
2022-07-30T01:17:15.670Z,17.20
2022-07-30T01:18:15.670Z,17.18
2022-07-30T01:19:15.627Z,17.17
2022-07-30T01:20:15.590Z,17.13
2022-07-30T01:21:15.649Z,17.12
2022-07-30T01:22:15.619Z,17.12
2022-07-30T01:23:15.596Z,17.10
2022-07-30T01:24:15.540Z,17.09
2022-07-30T01:25:15.538Z,17.06
2022-07-30T01:26:15.518Z,17.05
2022-07-30T01:27:19.387Z,17.05
2022-07-30T01:28:18.607Z,17.02
2022-07-30T01:29:15.487Z,17.00
2022-07-30T01:30:15.530Z,17.00
2022-07-30T01:31:15.518Z,17.00
2022-07-30T01:32:15.449Z,16.97
2022-07-30T01:33:15.448Z,16.95
2022-07-30T01:34:15.414Z,16.94
2022-07-30T01:35:15.472Z,16.95
2022-07-30T01:36:15.410Z,16.91
2022-07-30T01:37:15.375Z,16.92
2022-07-30T01:38:15.355Z,16.91
2022-07-30T01:39:15.410Z,16.88
2022-07-30T01:40:15.336Z,16.87
2022-07-30T01:41:15.371Z,16.88
2022-07-30T01:42:15.326Z,16.85
2022-07-30T01:43:15.322Z,16.85
2022-07-30T01:44:15.279Z,16.81
2022-07-30T01:45:16.315Z,16.82
2022-07-30T01:46:15.304Z,16.80
2022-07-30T01:47:15.236Z,16.77
2022-07-30T01:48:15.224Z,16.76
2022-07-30T01:49:15.395Z,16.74
2022-07-30T01:50:15.233Z,16.73
2022-07-30T01:51:15.259Z,16.72
2022-07-30T01:52:15.209Z,16.70
2022-07-30T01:53:15.174Z,16.70
2022-07-30T01:54:15.190Z,16.69
2022-07-30T01:55:17.453Z,16.67
2022-07-30T01:56:16.788Z,16.67
2022-07-30T01:57:15.110Z,16.63
2022-07-30T01:58:15.140Z,16.63
2022-07-30T01:59:15.087Z,16.62
2022-07-30T02:00:15.072Z,16.59
2022-07-30T02:01:15.160Z,16.58
2022-07-30T02:02:18.149Z,16.55
2022-07-30T02:03:15.087Z,16.55
2022-07-30T02:04:15.021Z,16.54
2022-07-30T02:05:15.028Z,16.52
2022-07-30T02:06:14.989Z,16.52
2022-07-30T02:07:15.026Z,16.51
2022-07-30T02:08:14.960Z,16.51
2022-07-30T02:09:14.970Z,16.49
2022-07-30T02:10:14.935Z,16.49
2022-07-30T02:11:14.961Z,16.48
2022-07-30T02:12:15.029Z,16.48
2022-07-30T02:13:14.932Z,16.47
2022-07-30T02:14:14.919Z,16.44
2022-07-30T02:15:14.880Z,16.42
2022-07-30T02:16:14.929Z,16.42
2022-07-30T02:17:18.723Z,16.42
2022-07-30T02:18:14.826Z,16.44
2022-07-30T02:19:14.862Z,16.42
2022-07-30T02:20:14.796Z,16.42
2022-07-30T02:21:14.895Z,16.40
2022-07-30T02:22:15.247Z,16.39
2022-07-30T02:23:14.804Z,16.40
2022-07-30T02:24:14.782Z,16.40
2022-07-30T02:25:14.764Z,16.40
2022-07-30T02:26:14.725Z,16.40
2022-07-30T02:27:14.713Z,16.40
2022-07-30T02:28:14.726Z,16.44
2022-07-30T02:29:14.711Z,16.42
2022-07-30T02:30:14.670Z,16.47
2022-07-30T02:31:17.288Z,16.44
2022-07-30T02:32:14.697Z,16.45
2022-07-30T02:33:14.679Z,16.44
2022-07-30T02:34:14.652Z,16.42
2022-07-30T02:35:14.652Z,16.42
2022-07-30T02:36:14.593Z,16.42
2022-07-30T02:37:14.607Z,16.44
2022-07-30T02:38:14.566Z,16.42
2022-07-30T02:39:14.572Z,16.42
2022-07-30T02:40:14.545Z,16.42
2022-07-30T02:41:14.548Z,16.42
2022-07-30T02:42:14.662Z,16.45
2022-07-30T02:43:14.514Z,16.45
2022-07-30T02:44:14.520Z,16.42
2022-07-30T02:45:14.499Z,16.42
2022-07-30T02:46:14.561Z,16.44
2022-07-30T02:47:14.533Z,16.45
2022-07-30T02:48:35.033Z,16.44
2022-07-30T02:49:15.567Z,16.45
2022-07-30T02:50:14.428Z,16.44
2022-07-30T02:51:14.410Z,16.47
2022-07-30T02:52:14.489Z,16.48
2022-07-30T02:53:14.379Z,16.49
2022-07-30T02:54:14.423Z,16.47
2022-07-30T02:55:14.383Z,16.48
2022-07-30T02:56:14.380Z,16.47
2022-07-30T02:57:14.363Z,16.47
2022-07-30T02:58:14.324Z,16.47
2022-07-30T02:59:14.318Z,16.48
2022-07-30T03:00:14.300Z,16.47
2022-07-30T03:01:14.382Z,16.47
2022-07-30T03:02:14.587Z,16.47
2022-07-30T03:03:14.274Z,16.44
2022-07-30T03:04:14.275Z,16.45
2022-07-30T03:05:14.256Z,16.45
2022-07-30T03:06:14.225Z,16.42
2022-07-30T03:07:14.275Z,16.44
2022-07-30T03:08:14.202Z,16.40
2022-07-30T03:09:16.889Z,16.39
2022-07-30T03:10:14.156Z,16.39
2022-07-30T03:11:14.178Z,16.39
2022-07-30T03:12:14.151Z,16.37
2022-07-30T03:13:14.145Z,16.34
2022-07-30T03:14:14.122Z,16.33
2022-07-30T03:15:14.141Z,16.33
2022-07-30T03:16:14.128Z,16.32
2022-07-30T03:17:14.082Z,16.32
2022-07-30T03:18:14.084Z,16.32
2022-07-30T03:19:14.054Z,16.30
2022-07-30T03:20:14.385Z,16.27
2022-07-30T03:21:14.065Z,16.25
2022-07-30T03:22:14.033Z,16.22
2022-07-30T03:23:14.030Z,16.22
2022-07-30T03:24:14.049Z,16.18
2022-07-30T03:25:13.971Z,16.21
2022-07-30T03:26:13.950Z,16.17
2022-07-30T03:27:13.969Z,16.17
2022-07-30T03:28:13.949Z,16.16
2022-07-30T03:29:13.921Z,16.14
2022-07-30T03:30:13.904Z,16.14
2022-07-30T03:31:13.975Z,16.11
2022-07-30T03:32:14.024Z,16.11
2022-07-30T03:33:13.887Z,16.10
2022-07-30T03:34:14.455Z,16.07
2022-07-30T03:35:17.177Z,16.08
2022-07-30T03:36:13.850Z,16.07
2022-07-30T03:37:13.943Z,16.06
2022-07-30T03:38:13.817Z,16.02
2022-07-30T03:39:13.787Z,16.02
2022-07-30T03:40:13.770Z,16.00
2022-07-30T03:41:13.796Z,16.00
2022-07-30T03:42:13.778Z,15.96
2022-07-30T03:43:18.367Z,15.96
2022-07-30T03:44:14.801Z,15.93
2022-07-30T03:45:13.725Z,15.93
2022-07-30T03:46:13.750Z,15.92
2022-07-30T03:47:13.775Z,15.92
2022-07-30T03:48:13.715Z,15.91
2022-07-30T03:49:13.710Z,15.91
2022-07-30T03:50:13.644Z,15.89
2022-07-30T03:51:13.654Z,15.88
2022-07-30T03:52:13.722Z,15.86
2022-07-30T03:53:13.612Z,15.86
2022-07-30T03:54:13.997Z,15.83
2022-07-30T03:55:13.637Z,15.83
2022-07-30T03:56:14.548Z,15.81
2022-07-30T03:57:17.684Z,15.80
2022-07-30T03:58:14.553Z,15.78
2022-07-30T03:59:13.562Z,15.75
2022-07-30T04:00:13.516Z,15.75
2022-07-30T04:01:13.531Z,15.74
2022-07-30T04:02:13.501Z,15.73
2022-07-30T04:03:13.521Z,15.71
2022-07-30T04:04:13.502Z,15.71
2022-07-30T04:05:13.483Z,15.67
2022-07-30T04:06:13.502Z,15.68
2022-07-30T04:07:13.522Z,15.65
2022-07-30T04:08:13.410Z,15.65
2022-07-30T04:09:13.427Z,15.63
2022-07-30T04:10:13.413Z,15.63
2022-07-30T04:11:13.397Z,15.62
2022-07-30T04:12:13.406Z,15.63
2022-07-30T04:13:13.417Z,15.62
2022-07-30T04:14:13.362Z,15.60
2022-07-30T04:16:05.653Z,15.60
2022-07-30T04:16:40.511Z,15.59
2022-07-30T04:17:14.360Z,15.58
2022-07-30T04:18:13.375Z,15.58
2022-07-30T04:19:13.304Z,15.56
2022-07-30T04:20:16.480Z,15.55
2022-07-30T04:21:16.980Z,15.56
2022-07-30T04:22:13.287Z,15.56
2022-07-30T04:23:13.246Z,15.55
2022-07-30T04:24:13.214Z,15.55
2022-07-30T04:25:24.066Z,15.55
2022-07-30T04:26:14.270Z,15.55
2022-07-30T04:27:13.296Z,15.55
2022-07-30T04:28:13.225Z,15.52
2022-07-30T04:29:13.512Z,15.53
2022-07-30T04:30:13.178Z,15.53
2022-07-30T04:31:13.224Z,15.53
2022-07-30T04:32:13.182Z,15.51
2022-07-30T04:33:13.128Z,15.52
2022-07-30T04:34:13.089Z,15.53
2022-07-30T04:35:13.115Z,15.52
2022-07-30T04:36:16.425Z,15.55
2022-07-30T04:37:13.114Z,15.53
2022-07-30T04:38:13.082Z,15.52
2022-07-30T04:39:13.055Z,15.52
2022-07-30T04:40:13.033Z,15.52
2022-07-30T04:41:13.000Z,15.52
2022-07-30T04:42:13.012Z,15.52
2022-07-30T04:43:13.011Z,15.52
2022-07-30T04:44:13.000Z,15.51
2022-07-30T04:45:13.889Z,15.52
2022-07-30T04:46:12.967Z,15.51
2022-07-30T04:47:12.965Z,15.52
2022-07-30T04:48:13.040Z,15.51
2022-07-30T04:49:13.089Z,15.52
2022-07-30T04:50:13.010Z,15.51
2022-07-30T04:51:12.873Z,15.52
2022-07-30T04:52:12.867Z,15.52
2022-07-30T04:53:12.849Z,15.51
2022-07-30T04:54:15.502Z,15.52
2022-07-30T04:55:12.839Z,15.52
2022-07-30T04:56:12.841Z,15.53
2022-07-30T04:57:12.789Z,15.52
2022-07-30T04:58:12.865Z,15.53
2022-07-30T04:59:12.797Z,15.56
2022-07-30T05:00:12.792Z,15.55
2022-07-30T05:01:12.809Z,15.55
2022-07-30T05:02:12.802Z,15.56
2022-07-30T05:03:12.737Z,15.56
2022-07-30T05:04:12.746Z,15.58
2022-07-30T05:05:12.796Z,15.59
2022-07-30T05:06:12.728Z,15.59
2022-07-30T05:07:12.686Z,15.59
2022-07-30T05:08:12.738Z,15.59
2022-07-30T05:09:12.659Z,15.60
2022-07-30T05:10:12.665Z,15.59
2022-07-30T05:11:12.619Z,15.59
2022-07-30T05:12:12.627Z,15.62
2022-07-30T05:13:13.087Z,15.60
2022-07-30T05:14:12.580Z,15.62
2022-07-30T05:15:12.596Z,15.60
2022-07-30T05:16:12.626Z,15.63
2022-07-30T05:17:12.537Z,15.62
2022-07-30T05:18:12.549Z,15.62
2022-07-30T05:19:12.532Z,15.63
2022-07-30T05:20:12.570Z,15.65
2022-07-30T05:21:12.518Z,15.65
2022-07-30T05:22:12.506Z,15.67
2022-07-30T05:23:12.504Z,15.68
2022-07-30T05:24:12.451Z,15.70
2022-07-30T05:25:16.080Z,15.73
2022-07-30T05:26:12.443Z,15.71
2022-07-30T05:27:12.411Z,15.73
2022-07-30T05:28:12.548Z,15.75
2022-07-30T05:29:14.972Z,15.75
2022-07-30T05:30:13.378Z,15.78
2022-07-30T05:31:12.501Z,15.78
2022-07-30T05:32:12.390Z,15.80
2022-07-30T05:33:15.714Z,15.84
2022-07-30T05:34:12.330Z,15.86
2022-07-30T05:35:12.308Z,15.88
2022-07-30T05:36:12.318Z,15.88
2022-07-30T05:37:12.319Z,15.91
2022-07-30T05:38:12.307Z,15.93
2022-07-30T05:39:12.321Z,15.93
2022-07-30T05:40:12.257Z,15.96
2022-07-30T05:41:32.373Z,15.98
2022-07-30T05:42:13.270Z,16.00
2022-07-30T05:43:12.271Z,16.04
2022-07-30T05:44:12.207Z,16.07
2022-07-30T05:45:12.206Z,16.10
2022-07-30T05:46:12.236Z,16.13
2022-07-30T05:47:12.183Z,16.14
2022-07-30T05:48:12.183Z,16.18
2022-07-30T05:49:12.308Z,16.25
2022-07-30T05:50:12.146Z,16.30
2022-07-30T05:51:12.258Z,16.33
2022-07-30T05:52:12.114Z,16.39
2022-07-30T05:53:12.105Z,16.44
2022-07-30T05:54:12.084Z,16.49
2022-07-30T05:55:12.055Z,16.54
2022-07-30T05:56:12.081Z,16.63
2022-07-30T05:57:12.024Z,16.69
2022-07-30T05:58:12.031Z,16.80
2022-07-30T05:59:12.054Z,16.87
2022-07-30T06:00:11.992Z,16.91
2022-07-30T06:01:12.307Z,16.95
2022-07-30T06:02:11.982Z,17.02
2022-07-30T06:03:11.993Z,17.07
2022-07-30T06:04:12.016Z,17.12
2022-07-30T06:05:11.931Z,17.15
2022-07-30T06:06:11.933Z,17.21
2022-07-30T06:07:11.911Z,17.24
2022-07-30T06:08:11.944Z,17.28
2022-07-30T06:09:11.873Z,17.30
2022-07-30T06:10:11.874Z,17.31
2022-07-30T06:11:11.930Z,17.36
2022-07-30T06:12:11.866Z,17.39
2022-07-30T06:13:11.880Z,17.42
2022-07-30T06:14:11.832Z,17.46
2022-07-30T06:15:11.822Z,17.47
2022-07-30T06:16:11.841Z,17.49
2022-07-30T06:17:11.789Z,17.57
2022-07-30T06:18:11.805Z,17.57
2022-07-30T06:19:19.522Z,17.58
2022-07-30T06:20:12.801Z,17.63
2022-07-30T06:21:11.784Z,17.65
2022-07-30T06:22:11.717Z,17.69
2022-07-30T06:23:11.716Z,17.73
2022-07-30T06:24:11.695Z,17.74
2022-07-30T06:25:11.698Z,17.79
2022-07-30T06:26:11.710Z,17.81
2022-07-30T06:27:11.678Z,17.86
2022-07-30T06:28:35.907Z,17.90
2022-07-30T06:29:13.410Z,17.94
2022-07-30T06:30:11.638Z,17.98
2022-07-30T06:31:11.686Z,18.01
2022-07-30T06:32:11.587Z,18.05
2022-07-30T06:33:11.635Z,18.08
2022-07-30T06:34:11.618Z,18.11
2022-07-30T06:35:11.566Z,18.14
2022-07-30T06:36:13.765Z,18.16
2022-07-30T06:37:11.525Z,18.17
2022-07-30T06:38:11.547Z,18.21
2022-07-30T06:39:11.496Z,18.26
2022-07-30T06:40:11.498Z,18.32
2022-07-30T06:41:11.516Z,18.42
2022-07-30T06:42:11.488Z,18.51
2022-07-30T06:43:11.491Z,18.60
2022-07-30T06:44:11.479Z,18.69
2022-07-30T06:45:11.435Z,18.78
2022-07-30T06:46:11.507Z,18.82
2022-07-30T06:47:11.816Z,18.89
2022-07-30T06:48:11.391Z,18.93
2022-07-30T06:49:11.484Z,18.97
2022-07-30T06:50:11.362Z,19.02
2022-07-30T06:51:11.418Z,19.06
2022-07-30T06:52:14.526Z,19.09
2022-07-30T06:53:12.312Z,19.13
2022-07-30T06:54:11.301Z,19.16
2022-07-30T06:55:11.302Z,19.20
2022-07-30T06:56:11.333Z,19.27
2022-07-30T06:57:11.262Z,19.32
2022-07-30T06:58:11.250Z,19.38
2022-07-30T06:59:11.243Z,19.46
2022-07-30T07:00:11.223Z,19.52
2022-07-30T07:01:11.691Z,19.60
2022-07-30T07:02:11.190Z,19.63
2022-07-30T07:03:11.971Z,19.68
2022-07-30T07:04:11.208Z,19.75
2022-07-30T07:05:11.177Z,19.79
2022-07-30T07:06:11.177Z,19.83
2022-07-30T07:07:12.638Z,19.87
2022-07-30T07:08:11.138Z,19.89
2022-07-30T07:09:11.180Z,19.92
2022-07-30T07:10:11.128Z,19.98
2022-07-30T07:11:11.070Z,20.01
2022-07-30T07:12:11.116Z,20.05
2022-07-30T07:13:11.086Z,20.08
2022-07-30T07:14:11.066Z,20.12
2022-07-30T07:15:11.032Z,20.15
2022-07-30T07:16:11.016Z,20.18
2022-07-30T07:17:11.066Z,20.22
2022-07-30T07:18:10.986Z,20.25
2022-07-30T07:19:10.995Z,20.30
2022-07-30T07:20:10.983Z,20.32
2022-07-30T07:21:10.947Z,20.35
2022-07-30T07:22:10.934Z,20.38
2022-07-30T07:23:11.940Z,20.40
2022-07-30T07:24:10.985Z,20.40
2022-07-30T07:25:10.923Z,20.42
2022-07-30T07:26:10.898Z,20.44
2022-07-30T07:27:15.280Z,20.48
2022-07-30T07:28:13.390Z,20.48
2022-07-30T07:29:10.870Z,20.54
2022-07-30T07:30:10.832Z,20.56
2022-07-30T07:31:10.898Z,20.57
2022-07-30T07:32:10.864Z,20.63
2022-07-30T07:33:10.793Z,20.66
2022-07-30T07:34:14.260Z,20.68
2022-07-30T07:35:11.780Z,20.72
2022-07-30T07:36:10.804Z,20.76
2022-07-30T07:37:10.731Z,20.81
2022-07-30T07:38:10.721Z,20.83
2022-07-30T07:39:12.909Z,20.88
2022-07-30T07:40:10.724Z,20.91
2022-07-30T07:41:10.684Z,20.93
2022-07-30T07:42:10.673Z,20.97
2022-07-30T07:43:10.667Z,21.00
2022-07-30T07:44:10.718Z,21.03
2022-07-30T07:45:10.630Z,21.06
2022-07-30T07:46:10.712Z,21.08
2022-07-30T07:47:10.609Z,21.11
2022-07-30T07:48:10.604Z,21.12
2022-07-30T07:49:10.707Z,21.12
2022-07-30T07:50:10.570Z,21.15
2022-07-30T07:51:10.559Z,21.16
2022-07-30T07:52:10.580Z,21.18
2022-07-30T07:53:10.554Z,21.19
2022-07-30T07:54:21.136Z,21.22
2022-07-30T07:55:11.509Z,21.25
2022-07-30T07:56:10.520Z,21.25
2022-07-30T07:57:10.590Z,21.30
2022-07-30T07:58:10.491Z,21.34
2022-07-30T07:59:10.447Z,21.36
2022-07-30T08:00:10.449Z,21.40
2022-07-30T08:01:10.546Z,21.41
2022-07-30T08:02:10.517Z,21.43
2022-07-30T08:03:10.420Z,21.48
2022-07-30T08:04:10.751Z,21.51
2022-07-30T08:05:10.388Z,21.52
2022-07-30T08:06:14.731Z,21.56
2022-07-30T08:07:10.409Z,21.58
2022-07-30T08:08:10.358Z,21.56
2022-07-30T08:09:10.339Z,21.58
2022-07-30T08:10:10.353Z,21.62
2022-07-30T08:11:10.309Z,21.67
2022-07-30T08:12:10.286Z,21.68
2022-07-30T08:13:51.989Z,21.71
2022-07-30T08:14:11.266Z,21.73
2022-07-30T08:15:10.254Z,21.76
2022-07-30T08:16:11.447Z,21.80
2022-07-30T08:17:10.383Z,21.83
2022-07-30T08:18:10.214Z,21.85
2022-07-30T08:19:10.205Z,21.90
2022-07-30T08:20:10.227Z,21.93
2022-07-30T08:21:10.203Z,21.92
2022-07-30T08:22:10.184Z,21.94
2022-07-30T08:23:10.145Z,21.94
2022-07-30T08:24:10.152Z,21.94
2022-07-30T08:25:10.185Z,21.96
2022-07-30T08:26:10.130Z,21.99
2022-07-30T08:27:10.167Z,21.99
2022-07-30T08:28:35.264Z,22.00
2022-07-30T08:29:15.421Z,22.04
2022-07-30T08:30:11.064Z,22.07
2022-07-30T08:31:10.066Z,22.09
2022-07-30T08:32:10.065Z,22.12
2022-07-30T08:33:10.044Z,22.14
2022-07-30T08:34:10.025Z,22.16
2022-07-30T08:35:10.016Z,22.18
2022-07-30T08:36:10.423Z,22.23
2022-07-30T08:37:09.980Z,22.22
2022-07-30T08:38:09.961Z,22.23
2022-07-30T08:39:09.939Z,22.24
2022-07-30T08:40:09.952Z,22.27
2022-07-30T08:41:09.940Z,22.27
2022-07-30T08:42:09.951Z,22.30
2022-07-30T08:43:09.890Z,22.33
2022-07-30T08:44:12.663Z,22.34
2022-07-30T08:45:09.876Z,22.36
2022-07-30T08:46:09.878Z,22.41
2022-07-30T08:47:09.899Z,22.45
2022-07-30T08:48:13.604Z,22.48
2022-07-30T08:49:11.574Z,22.49
2022-07-30T08:50:09.801Z,22.49
2022-07-30T08:51:09.804Z,22.52
2022-07-30T08:52:09.797Z,22.54
2022-07-30T08:53:09.809Z,22.57
2022-07-30T08:54:09.771Z,22.59
2022-07-30T08:55:09.736Z,22.63
2022-07-30T08:56:09.724Z,22.67
2022-07-30T08:57:09.777Z,22.70
2022-07-30T08:58:09.716Z,22.70
2022-07-30T08:59:09.724Z,22.73
2022-07-30T09:00:09.665Z,22.75
2022-07-30T09:01:09.692Z,22.75
2022-07-30T09:02:12.559Z,22.76
2022-07-30T09:03:09.655Z,22.78
2022-07-30T09:04:09.647Z,22.79
2022-07-30T09:05:09.612Z,22.82
2022-07-30T09:06:09.605Z,22.82
2022-07-30T09:07:09.625Z,22.86
2022-07-30T09:08:09.588Z,22.88
2022-07-30T09:09:09.634Z,22.92
2022-07-30T09:10:09.556Z,22.96
2022-07-30T09:11:09.540Z,22.96
2022-07-30T09:12:09.570Z,22.94
2022-07-30T09:13:09.511Z,22.91
2022-07-30T09:14:09.533Z,22.94
2022-07-30T09:15:09.492Z,22.94
2022-07-30T09:16:09.539Z,22.94
2022-07-30T09:17:09.644Z,22.92
2022-07-30T09:18:09.463Z,22.92
2022-07-30T09:19:09.462Z,22.97
2022-07-30T09:20:09.423Z,23.03
2022-07-30T09:21:09.410Z,23.06
2022-07-30T09:22:09.422Z,23.10
2022-07-30T09:23:09.393Z,23.16
2022-07-30T09:24:09.382Z,23.18
2022-07-30T09:25:09.391Z,23.22
2022-07-30T09:26:09.359Z,23.25
2022-07-30T09:27:09.468Z,23.25
2022-07-30T09:28:15.782Z,23.28
2022-07-30T09:29:10.319Z,23.25
2022-07-30T09:30:09.292Z,23.29
2022-07-30T09:31:09.298Z,23.35
2022-07-30T09:32:09.292Z,23.41
2022-07-30T09:33:09.268Z,23.44
2022-07-30T09:34:09.241Z,23.48
2022-07-30T09:35:09.230Z,23.52
2022-07-30T09:36:09.227Z,23.57
2022-07-30T09:37:10.472Z,23.62
2022-07-30T09:38:09.197Z,23.67
2022-07-30T09:39:09.183Z,23.71
2022-07-30T09:40:09.208Z,23.74
2022-07-30T09:41:29.129Z,23.74
2022-07-30T09:42:10.167Z,23.75
2022-07-30T09:43:09.135Z,23.78
2022-07-30T09:44:09.117Z,23.81
2022-07-30T09:45:09.173Z,23.84
2022-07-30T09:46:09.085Z,23.87
2022-07-30T09:47:09.156Z,23.90
2022-07-30T09:48:09.066Z,23.96
2022-07-30T09:49:09.119Z,23.97
2022-07-30T09:50:09.076Z,23.99
2022-07-30T09:51:15.704Z,24.02
2022-07-30T09:52:10.435Z,24.02
2022-07-30T09:53:09.336Z,23.99
2022-07-30T09:54:08.983Z,23.96
2022-07-30T09:55:09.024Z,23.94
2022-07-30T09:56:08.987Z,23.97
2022-07-30T09:57:25.602Z,23.99
2022-07-30T09:58:09.933Z,24.03
2022-07-30T09:59:18.604Z,24.09
2022-07-30T10:00:09.922Z,24.12
2022-07-30T10:01:08.894Z,24.14
2022-07-30T10:02:10.258Z,24.15
2022-07-30T10:03:12.590Z,24.17
2022-07-30T10:04:09.863Z,24.18
2022-07-30T10:05:08.849Z,24.19
2022-07-30T10:06:08.870Z,24.18
2022-07-30T10:07:08.854Z,24.21
2022-07-30T10:08:16.454Z,24.22
2022-07-30T10:09:14.180Z,24.19
2022-07-30T10:10:09.808Z,24.18
2022-07-30T10:11:09.670Z,24.19
2022-07-30T10:12:10.495Z,24.17
2022-07-30T10:13:08.741Z,24.14
2022-07-30T10:14:08.730Z,24.12
2022-07-30T10:15:08.709Z,24.11
2022-07-30T10:16:08.734Z,24.14
2022-07-30T10:17:08.688Z,24.15
2022-07-30T10:18:08.719Z,24.19
2022-07-30T10:19:13.763Z,24.24
2022-07-30T10:20:09.661Z,24.29
2022-07-30T10:21:08.643Z,24.36
2022-07-30T10:22:08.668Z,24.39
2022-07-30T10:23:09.223Z,24.44
2022-07-30T10:24:08.591Z,24.45
2022-07-30T10:25:08.665Z,24.48
2022-07-30T10:26:08.589Z,24.52
2022-07-30T10:27:08.584Z,24.56
2022-07-30T10:28:08.566Z,24.61
2022-07-30T10:29:08.546Z,24.64
2022-07-30T10:30:08.562Z,24.69
2022-07-30T10:31:47.978Z,24.77
2022-07-30T10:32:09.570Z,24.82
2022-07-30T10:33:08.504Z,24.87
2022-07-30T10:34:09.540Z,24.92
2022-07-30T10:35:08.497Z,24.97
2022-07-30T10:36:09.101Z,24.97
2022-07-30T10:37:08.478Z,25.01
2022-07-30T10:38:08.435Z,25.01
2022-07-30T10:39:08.404Z,25.04
2022-07-30T10:40:08.429Z,25.02
2022-07-30T10:41:08.414Z,25.00
2022-07-30T10:42:08.372Z,25.01
2022-07-30T10:43:08.413Z,25.05
2022-07-30T10:44:08.392Z,25.07
2022-07-30T10:45:08.353Z,25.08
2022-07-30T10:46:20.095Z,25.09
2022-07-30T10:47:10.404Z,25.11
2022-07-30T10:48:08.417Z,25.12
2022-07-30T10:49:17.641Z,25.15
2022-07-30T10:50:10.589Z,25.12
2022-07-30T10:51:08.262Z,25.09
2022-07-30T10:52:08.247Z,25.08
2022-07-30T10:53:08.281Z,25.04
2022-07-30T10:54:08.257Z,25.00
2022-07-30T10:55:08.254Z,25.00
2022-07-30T10:56:08.231Z,25.02
2022-07-30T10:57:08.191Z,25.04
2022-07-30T10:58:08.162Z,25.07
2022-07-30T10:59:08.453Z,25.11
2022-07-30T11:00:08.162Z,25.12
2022-07-30T11:01:17.834Z,25.08
2022-07-30T11:02:09.121Z,25.11
2022-07-30T11:03:15.032Z,25.09
2022-07-30T11:04:09.099Z,25.09
2022-07-30T11:05:08.093Z,25.14
2022-07-30T11:06:08.067Z,25.14
2022-07-30T11:07:08.067Z,25.19
2022-07-30T11:08:08.036Z,25.22
2022-07-30T11:09:08.050Z,25.26
2022-07-30T11:10:09.116Z,25.27
2022-07-30T11:11:19.601Z,25.29
2022-07-30T11:12:09.013Z,25.32
2022-07-30T11:13:08.012Z,25.30
2022-07-30T11:14:07.983Z,25.33
2022-07-30T11:15:19.271Z,25.37
2022-07-30T11:16:08.949Z,25.37
2022-07-30T11:17:08.020Z,25.38
2022-07-30T11:18:11.461Z,25.39
2022-07-30T11:20:11.987Z,25.45
2022-07-30T11:21:07.879Z,25.48
2022-07-30T11:22:08.916Z,25.48
2022-07-30T11:23:07.878Z,25.49
2022-07-30T11:24:07.836Z,25.52
2022-07-30T11:25:12.978Z,25.54
2022-07-30T11:26:14.338Z,25.57
2022-07-30T11:27:08.927Z,25.57
2022-07-30T11:28:07.797Z,25.59
2022-07-30T11:29:07.784Z,25.59
2022-07-30T11:30:07.795Z,25.56
2022-07-30T11:31:10.475Z,25.54
2022-07-30T11:32:07.862Z,25.59
2022-07-30T11:33:07.774Z,25.62
2022-07-30T11:34:07.724Z,25.63
2022-07-30T11:35:07.714Z,25.66
2022-07-30T11:36:07.690Z,25.70
2022-07-30T11:37:18.231Z,25.71
2022-07-30T11:38:08.687Z,25.75
2022-07-30T11:39:07.704Z,25.82
2022-07-30T11:40:07.712Z,25.82
2022-07-30T11:41:07.627Z,25.85
2022-07-30T11:42:07.603Z,25.85
2022-07-30T11:43:07.642Z,25.93
2022-07-30T11:44:07.592Z,25.97
2022-07-30T11:45:07.590Z,26.01
2022-07-30T11:46:07.595Z,26.00
2022-07-30T11:47:07.553Z,25.97
2022-07-30T11:48:07.543Z,26.00
2022-07-30T11:49:07.596Z,26.01
2022-07-30T11:50:07.518Z,26.01
2022-07-30T11:51:07.502Z,25.94
2022-07-30T11:52:07.520Z,25.89
2022-07-30T11:53:07.564Z,25.84
2022-07-30T11:54:07.464Z,25.82
2022-07-30T11:55:07.519Z,25.82
2022-07-30T11:56:07.450Z,25.88
2022-07-30T11:57:07.411Z,25.96
2022-07-30T11:58:07.432Z,26.01
2022-07-30T11:59:07.393Z,26.11
2022-07-30T12:00:07.411Z,26.22
2022-07-30T12:01:09.486Z,26.32
2022-07-30T12:02:07.362Z,26.45
2022-07-30T12:03:07.351Z,26.53
2022-07-30T12:04:07.340Z,26.57
2022-07-30T12:05:07.347Z,26.56
2022-07-30T12:06:07.348Z,26.52
2022-07-30T12:07:07.300Z,26.49
2022-07-30T12:08:07.272Z,26.50
2022-07-30T12:09:07.281Z,26.52
2022-07-30T12:10:07.282Z,26.56
2022-07-30T12:11:07.249Z,26.60
2022-07-30T12:12:07.236Z,26.64
2022-07-30T12:13:07.764Z,26.69
2022-07-30T12:14:07.218Z,26.71
2022-07-30T12:15:07.212Z,26.71
2022-07-30T12:20:30.482Z,26.79
2022-07-30T12:25:54.343Z,27.06
2022-07-30T12:26:54.332Z,27.13
2022-07-30T12:27:52.691Z,27.19
2022-07-30T12:28:52.640Z,27.16
2022-07-30T12:29:52.627Z,27.12
2022-07-30T12:30:52.891Z,27.01
2022-07-30T12:31:52.604Z,26.94
2022-07-30T12:32:52.630Z,26.87
2022-07-30T12:33:52.562Z,26.79
2022-07-30T12:34:52.581Z,26.69
2022-07-30T12:35:52.568Z,26.61
2022-07-30T12:36:52.551Z,26.53
2022-07-30T12:37:52.543Z,26.50
2022-07-30T12:38:52.542Z,26.45
2022-07-30T12:39:52.496Z,26.47
2022-07-30T12:40:52.482Z,26.53
2022-07-30T12:41:52.503Z,26.63
2022-07-30T12:42:52.543Z,26.76
2022-07-30T12:46:04.164Z,27.24
2022-07-30T12:51:28.369Z,27.72
2022-07-30T12:52:27.823Z,27.86
2022-07-30T12:53:28.387Z,27.96
2022-07-30T12:54:26.625Z,28.05
2022-07-30T12:55:26.600Z,28.16
2022-07-30T12:56:26.576Z,28.26
2022-07-30T12:57:26.612Z,28.21
2022-07-30T12:58:26.597Z,28.14
2022-07-30T12:59:26.537Z,28.16
2022-07-30T13:00:26.544Z,28.27
2022-07-30T13:01:26.574Z,28.36
2022-07-30T13:02:26.615Z,28.43
2022-07-30T13:03:26.506Z,28.51
2022-07-30T13:04:26.490Z,28.58
2022-07-30T13:05:26.551Z,28.72
2022-07-30T13:06:26.456Z,28.82
2022-07-30T13:07:26.466Z,28.85
2022-07-30T13:08:26.436Z,28.95